Time;durP1;ratioP1;P1;durP2;ratioP2;P2;SDS_P1;SDS_P2;PMS_P1;PMS_P2;Temp;Humidity;BMP_temperature;BMP_pressure;BME280_temperature;BME280_humidity;BME280_pressure;Samples;Min_cycle;Max_cycle;Signal;HPM_P1;HPM_P2
2022/12/03 00:01:47;;;;;;;21.80;14.83;;;3.30;87.10;;;;;;5018181;28;20284;-93
2022/12/03 00:04:12;;;;;;;25.27;16.63;;;3.30;86.80;;;;;;5016598;28;20639;-93
2022/12/03 00:06:38;;;;;;;23.50;16.03;;;3.40;86.80;;;;;;5017621;28;20220;-93
2022/12/03 00:09:04;;;;;;;23.37;14.23;;;3.30;86.90;;;;;;5016419;28;20180;-92
2022/12/03 00:11:29;;;;;;;27.70;17.23;;;3.30;87.00;;;;;;5017101;28;20278;-93
2022/12/03 00:13:55;;;;;;;26.93;18.03;;;3.30;87.10;;;;;;5016609;28;20237;-93
2022/12/03 00:16:21;;;;;;;23.43;15.77;;;3.30;87.30;;;;;;5016383;28;20212;-93
2022/12/03 00:18:46;;;;;;;27.00;18.00;;;3.30;87.50;;;;;;5016839;28;20182;-92
2022/12/03 00:21:12;;;;;;;24.03;17.20;;;3.30;87.50;;;;;;5016292;28;20177;-92
2022/12/03 00:23:37;;;;;;;23.50;15.00;;;3.20;87.70;;;;;;5016360;28;20182;-93
2022/12/03 00:26:03;;;;;;;23.97;15.10;;;3.20;87.70;;;;;;5017520;28;20209;-92
2022/12/03 00:28:28;;;;;;;28.80;16.60;;;3.20;87.70;;;;;;5017284;28;20579;-92
2022/12/03 00:30:54;;;;;;;23.60;15.90;;;3.20;87.50;;;;;;5016829;28;20634;-93
2022/12/03 00:33:21;;;;;;;24.63;16.80;;;3.20;87.40;;;;;;5018060;28;20197;-92
2022/12/03 00:35:47;;;;;;;22.07;16.00;;;3.10;87.30;;;;;;5016624;28;20669;-93
2022/12/03 00:38:12;;;;;;;20.60;13.10;;;3.10;87.30;;;;;;5017956;28;20181;-92
2022/12/03 00:40:38;;;;;;;11.70;10.07;;;3.10;87.40;;;;;;5018331;28;20197;-92
2022/12/03 00:43:03;;;;;;;26.80;16.73;;;3.10;86.80;;;;;;5017150;28;20197;-93
2022/12/03 00:45:29;;;;;;;25.03;13.87;;;3.10;86.70;;;;;;5017007;28;20256;-92
2022/12/03 00:47:54;;;;;;;20.80;12.77;;;3.10;86.50;;;;;;5019347;28;20200;-93
2022/12/03 00:50:20;;;;;;;22.53;14.67;;;3.10;86.30;;;;;;5022062;28;20570;-93
2022/12/03 00:52:46;;;;;;;23.17;16.33;;;3.10;86.20;;;;;;5014954;28;20581;-91
2022/12/03 00:55:11;;;;;;;28.40;17.60;;;3.00;86.50;;;;;;5014727;28;20643;-91
2022/12/03 00:57:37;;;;;;;21.60;14.10;;;3.00;86.80;;;;;;5016296;28;20220;-91
2022/12/03 01:00:04;;;;;;;11.97;9.90;;;3.00;86.90;;;;;;5018762;28;20208;-93
2022/12/03 01:02:30;;;;;;;23.87;14.67;;;3.00;86.30;;;;;;5014907;28;20209;-92
2022/12/03 01:04:56;;;;;;;24.83;16.37;;;3.00;86.20;;;;;;5014462;28;20181;-93
2022/12/03 01:07:21;;;;;;;23.77;14.43;;;3.00;86.30;;;;;;5015628;28;20646;-92
2022/12/03 01:09:47;;;;;;;25.77;16.47;;;3.00;86.30;;;;;;5015353;28;20173;-92
2022/12/03 01:12:12;;;;;;;24.73;17.10;;;3.00;86.10;;;;;;5014563;28;20201;-92
2022/12/03 01:14:38;;;;;;;28.23;18.87;;;3.00;86.20;;;;;;5014713;28;20174;-92
2022/12/03 01:17:03;;;;;;;29.60;18.97;;;2.90;86.40;;;;;;5014733;28;20185;-92
2022/12/03 01:19:29;;;;;;;28.60;17.57;;;2.90;86.70;;;;;;5014826;28;20606;-92
2022/12/03 01:21:55;;;;;;;25.30;14.93;;;3.00;86.80;;;;;;5014811;28;20194;-92
2022/12/03 01:24:21;;;;;;;16.73;12.50;;;3.00;86.80;;;;;;5014364;28;20178;-92
2022/12/03 01:26:47;;;;;;;27.43;16.63;;;3.00;86.90;;;;;;5014092;28;20726;-92
2022/12/03 01:29:13;;;;;;;25.47;15.07;;;2.90;86.90;;;;;;5014272;28;20178;-92
2022/12/03 01:34:23;;;;;;;18.37;13.03;;;2.90;86.80;;;;;;5015563;28;20165;-92
2022/12/03 01:36:51;;;;;;;22.73;16.57;;;2.90;86.50;;;;;;5014040;28;20182;-93
2022/12/03 01:39:17;;;;;;;23.43;16.53;;;2.90;86.60;;;;;;5015225;28;20260;-92
2022/12/03 01:41:43;;;;;;;26.80;16.53;;;2.90;86.80;;;;;;5015297;28;20244;-93
2022/12/03 01:44:29;;;;;;;21.43;13.90;;;2.80;86.90;;;;;;5017018;28;20177;-93
2022/12/03 01:46:56;;;;;;;24.27;14.43;;;2.80;87.00;;;;;;5018497;28;20197;-94
2022/12/03 01:49:33;;;;;;;25.73;16.00;;;2.80;86.60;;;;;;5020424;28;20174;-93
2022/12/03 01:51:59;;;;;;;21.50;14.40;;;2.90;86.50;;;;;;5014700;28;20693;-93
2022/12/03 01:54:31;;;;;;;26.10;14.80;;;2.80;86.50;;;;;;5014329;28;20170;-92
2022/12/03 01:56:57;;;;;;;22.17;13.47;;;2.80;86.60;;;;;;5018142;28;20167;-93
2022/12/03 01:59:33;;;;;;;20.63;13.23;;;2.80;86.40;;;;;;5027807;28;20239;-94
2022/12/03 02:02:07;;;;;;;24.33;14.50;;;2.80;86.30;;;;;;5029407;28;20197;-94
2022/12/03 02:04:33;;;;;;;30.33;15.23;;;2.80;86.10;;;;;;5029434;28;20276;-93
2022/12/03 02:07:27;;;;;;;18.30;12.07;;;2.80;86.10;;;;;;5028229;28;20201;-93
2022/12/03 02:09:54;;;;;;;31.13;17.00;;;2.70;86.10;;;;;;5030019;28;20181;-93
2022/12/03 02:12:42;;;;;;;24.60;15.70;;;2.70;86.10;;;;;;5030190;28;20193;-93
2022/12/03 02:15:09;;;;;;;19.17;12.93;;;2.60;86.10;;;;;;5030028;28;20205;-93
2022/12/03 02:17:34;;;;;;;16.20;9.33;;;2.60;85.90;;;;;;5027614;28;20197;-93
2022/12/03 02:20:02;;;;;;;15.70;9.47;;;2.60;85.80;;;;;;5024070;28;20216;-93
2022/12/03 02:22:45;;;;;;;19.20;12.93;;;2.60;85.40;;;;;;5025141;28;20197;-93
2022/12/03 02:25:15;;;;;;;18.33;12.00;;;2.60;85.30;;;;;;5028975;28;20200;-93
2022/12/03 02:27:41;;;;;;;21.83;11.93;;;2.60;85.30;;;;;;5027517;28;20487;-93
2022/12/03 02:30:10;;;;;;;16.23;11.83;;;2.60;85.20;;;;;;5029037;28;20204;-93
2022/12/03 02:32:36;;;;;;;27.73;15.67;;;2.50;85.40;;;;;;5028504;28;20566;-94
2022/12/03 02:35:02;;;;;;;25.47;13.17;;;2.50;85.20;;;;;;5029819;28;20181;-94
2022/12/03 02:37:36;;;;;;;25.07;14.27;;;2.50;85.40;;;;;;5026338;28;20177;-94
2022/12/03 02:40:11;;;;;;;11.27;8.77;;;2.50;85.40;;;;;;5023536;28;20178;-92
2022/12/03 02:42:38;;;;;;;9.97;8.63;;;2.50;85.20;;;;;;5024004;28;20200;-93
2022/12/03 02:45:12;;;;;;;22.73;13.37;;;2.40;85.10;;;;;;5026843;28;20220;-93
2022/12/03 02:47:42;;;;;;;19.00;11.90;;;2.50;85.20;;;;;;5027761;28;20165;-93
2022/12/03 02:50:12;;;;;;;21.63;13.97;;;2.40;85.20;;;;;;5028034;28;20236;-94
2022/12/03 02:52:38;;;;;;;27.37;15.27;;;2.50;85.10;;;;;;5029562;28;20181;-93
2022/12/03 02:55:05;;;;;;;26.43;15.53;;;2.50;85.40;;;;;;5030475;28;20181;-94
2022/12/03 02:57:32;;;;;;;32.00;19.60;;;2.40;85.50;;;;;;5033316;28;20208;-94
2022/12/03 02:59:58;;;;;;;28.90;17.77;;;2.40;85.90;;;;;;5032133;28;20220;-94
2022/12/03 03:02:23;;;;;;;28.23;14.93;;;2.40;86.30;;;;;;5032158;28;20197;-93
2022/12/03 03:04:49;;;;;;;26.90;15.60;;;2.40;86.40;;;;;;5033560;28;20169;-93
2022/12/03 03:07:15;;;;;;;17.47;12.10;;;2.30;86.30;;;;;;5027004;28;20173;-93
2022/12/03 03:09:41;;;;;;;28.60;15.23;;;2.30;85.60;;;;;;5031295;28;20173;-94
2022/12/03 03:12:08;;;;;;;31.07;18.87;;;2.30;85.60;;;;;;5031957;28;20208;-94
2022/12/03 03:14:34;;;;;;;27.17;15.40;;;2.30;85.90;;;;;;5033047;28;20196;-94
2022/12/03 03:17:00;;;;;;;31.60;17.80;;;2.30;86.20;;;;;;5030597;28;20228;-94
2022/12/03 03:19:25;;;;;;;25.97;16.40;;;2.30;86.20;;;;;;5030553;28;20180;-94
2022/12/03 03:21:53;;;;;;;25.33;13.10;;;2.20;86.10;;;;;;5032458;28;20188;-93
2022/12/03 03:24:20;;;;;;;32.57;18.33;;;2.20;86.20;;;;;;5031679;28;20322;-94
2022/12/03 03:26:46;;;;;;;29.63;16.47;;;2.20;86.10;;;;;;5031524;28;20213;-94
2022/12/03 03:29:12;;;;;;;25.47;15.63;;;2.20;86.00;;;;;;5030333;28;20238;-93
2022/12/03 03:31:38;;;;;;;26.60;15.60;;;2.10;86.10;;;;;;5031265;28;20220;-94
2022/12/03 03:34:04;;;;;;;28.37;17.17;;;2.10;86.20;;;;;;5031474;28;20180;-94
2022/12/03 03:36:31;;;;;;;27.90;16.03;;;2.10;86.30;;;;;;5032319;28;20185;-93
2022/12/03 03:38:57;;;;;;;31.37;17.53;;;2.10;86.30;;;;;;5029982;28;20182;-93
2022/12/03 03:41:26;;;;;;;26.30;16.20;;;2.10;86.10;;;;;;5032036;28;20181;-93
2022/12/03 03:43:52;;;;;;;25.97;16.33;;;2.10;86.20;;;;;;5030804;28;20166;-94
2022/12/03 03:46:18;;;;;;;21.30;12.43;;;2.10;86.30;;;;;;5030085;28;20213;-93
2022/12/03 03:48:47;;;;;;;25.80;15.03;;;2.00;86.20;;;;;;5030877;28;20166;-93
2022/12/03 03:51:14;;;;;;;20.20;11.00;;;2.00;86.20;;;;;;5029188;28;20201;-93
2022/12/03 03:53:42;;;;;;;23.43;14.87;;;2.00;86.20;;;;;;5030415;28;20180;-93
2022/12/03 03:56:09;;;;;;;25.23;13.30;;;2.00;86.00;;;;;;5029092;28;20247;-93
2022/12/03 03:58:35;;;;;;;32.73;15.80;;;2.00;86.10;;;;;;5030597;28;20188;-93
2022/12/03 04:01:00;;;;;;;31.83;18.03;;;2.00;86.00;;;;;;5029313;28;20650;-94
2022/12/03 04:03:27;;;;;;;28.37;17.23;;;2.00;86.20;;;;;;5030578;28;20201;-93
2022/12/03 04:05:53;;;;;;;38.77;19.50;;;2.00;86.30;;;;;;5031574;28;20228;-93
2022/12/03 04:08:19;;;;;;;34.57;18.27;;;2.00;86.50;;;;;;5030939;28;20264;-93
2022/12/03 04:13:29;;;;;;;29.23;16.50;;;1.90;86.50;;;;;;5029886;28;20211;-93
2022/12/03 04:15:54;;;;;;;33.70;19.60;;;1.90;86.50;;;;;;5028661;28;20189;-94
2022/12/03 04:23:48;;;;;;;25.60;16.07;;;1.90;86.70;;;;;;5030297;28;20161;-93
2022/12/03 04:28:58;;;;;;;22.50;14.07;;;1.90;86.60;;;;;;5036779;28;20168;-93
2022/12/03 04:36:54;;;;;;;31.13;17.90;;;1.90;86.50;;;;;;5035620;28;20171;-92
2022/12/03 04:39:19;;;;;;;23.70;15.30;;;1.90;86.70;;;;;;5034810;28;20533;-91
2022/12/03 04:41:45;;;;;;;35.03;18.37;;;1.90;86.90;;;;;;5031393;28;20227;-92
2022/12/03 04:46:55;;;;;;;27.90;16.53;;;1.90;87.10;;;;;;5034773;28;20223;-94
2022/12/03 04:49:21;;;;;;;23.67;14.53;;;1.90;86.80;;;;;;5033071;28;20182;-94
2022/12/03 04:51:46;;;;;;;23.87;14.83;;;1.90;86.70;;;;;;5033203;28;20208;-94
2022/12/03 04:54:12;;;;;;;30.10;17.03;;;1.80;86.70;;;;;;5033012;28;20188;-93
2022/12/03 04:56:37;;;;;;;29.07;16.07;;;1.80;86.40;;;;;;5033841;28;20183;-94
2022/12/03 04:59:03;;;;;;;34.60;17.90;;;1.80;86.40;;;;;;5032832;28;20189;-94
2022/12/03 05:01:29;;;;;;;28.97;15.27;;;1.80;86.30;;;;;;5033627;28;20185;-94
2022/12/03 05:03:54;;;;;;;32.20;17.83;;;1.80;86.30;;;;;;5033207;28;20169;-94
2022/12/03 05:06:20;;;;;;;32.10;18.17;;;1.80;86.20;;;;;;5055079;23;20231;-90
2022/12/03 05:08:45;;;;;;;30.27;16.93;;;1.80;86.30;;;;;;5034400;28;20176;-89
2022/12/03 05:11:11;;;;;;;27.90;16.03;;;1.80;86.10;;;;;;5034351;28;20175;-90
2022/12/03 05:13:36;;;;;;;23.40;13.47;;;1.80;86.00;;;;;;5034321;28;20263;-89
2022/12/03 05:16:02;;;;;;;28.70;17.00;;;1.80;85.90;;;;;;5035363;28;20224;-89
2022/12/03 05:18:28;;;;;;;19.53;11.83;;;1.80;86.20;;;;;;5033991;28;20350;-90
2022/12/03 05:20:54;;;;;;;28.10;16.90;;;1.80;86.40;;;;;;5034033;28;20197;-90
2022/12/03 05:23:19;;;;;;;31.60;18.27;;;1.80;86.10;;;;;;5033938;28;20646;-89
2022/12/03 05:25:45;;;;;;;25.97;15.10;;;1.80;86.10;;;;;;5033724;28;20634;-90
2022/12/03 05:28:10;;;;;;;17.30;11.77;;;1.80;86.20;;;;;;5035053;28;20172;-89
2022/12/03 05:30:36;;;;;;;20.87;12.63;;;1.80;86.10;;;;;;5033750;28;20191;-90
2022/12/03 05:33:02;;;;;;;28.50;16.83;;;1.80;86.10;;;;;;5033744;28;20173;-89
2022/12/03 05:35:27;;;;;;;27.53;15.53;;;1.80;86.10;;;;;;5034664;28;20232;-89
2022/12/03 05:37:53;;;;;;;36.73;13.13;;;1.70;86.30;;;;;;5033665;28;20177;-90
2022/12/03 05:40:18;;;;;;;30.40;15.73;;;1.70;86.10;;;;;;5033570;28;20190;-90
2022/12/03 05:42:53;;;;;;;26.00;13.07;;;1.70;86.10;;;;;;5034742;28;20173;-90
2022/12/03 05:45:24;;;;;;;23.83;14.43;;;1.70;86.20;;;;;;5033272;28;20209;-90
2022/12/03 05:47:50;;;;;;;32.83;16.03;;;1.70;86.30;;;;;;5033499;28;20168;-89
2022/12/03 05:50:16;;;;;;;33.80;15.07;;;1.70;86.40;;;;;;5033435;28;20177;-91
2022/12/03 05:52:42;;;;;;;30.03;17.23;;;1.70;86.50;;;;;;5033395;28;20680;-90
2022/12/03 05:55:09;;;;;;;31.00;18.23;;;1.60;86.30;;;;;;5033212;28;20281;-89
2022/12/03 05:57:34;;;;;;;33.23;18.43;;;1.70;86.40;;;;;;5033252;28;20306;-90
2022/12/03 06:00:00;;;;;;;30.00;16.60;;;1.70;86.40;;;;;;5033500;28;20267;-89
2022/12/03 06:02:25;;;;;;;33.60;17.30;;;1.70;86.40;;;;;;5033147;28;20183;-90
2022/12/03 06:04:51;;;;;;;21.90;12.80;;;1.60;86.40;;;;;;5034069;28;20592;-90
2022/12/03 06:07:16;;;;;;;27.47;16.60;;;1.70;86.50;;;;;;5033061;28;20591;-90
2022/12/03 06:09:42;;;;;;;30.07;12.77;;;1.60;86.40;;;;;;5033057;28;20180;-89
2022/12/03 06:12:07;;;;;;;31.23;16.43;;;1.60;86.50;;;;;;5033014;28;20643;-89
2022/12/03 06:14:34;;;;;;;37.27;18.80;;;1.60;86.50;;;;;;5032890;28;20186;-90
2022/12/03 06:17:00;;;;;;;27.70;17.07;;;1.60;86.70;;;;;;5032956;28;20180;-89
2022/12/03 06:19:26;;;;;;;31.13;17.47;;;1.60;86.70;;;;;;5032809;28;20191;-89
2022/12/03 06:21:51;;;;;;;37.13;17.37;;;1.60;86.70;;;;;;5033240;28;20176;-90
2022/12/03 06:24:17;;;;;;;26.17;15.90;;;1.60;86.70;;;;;;5033268;28;20187;-89
2022/12/03 06:26:42;;;;;;;34.37;17.57;;;1.60;86.80;;;;;;5033347;28;20566;-89
2022/12/03 06:29:08;;;;;;;26.57;15.67;;;1.50;86.80;;;;;;5032826;28;20658;-89
2022/12/03 06:31:34;;;;;;;26.20;16.23;;;1.50;86.90;;;;;;5033976;28;20546;-89
2022/12/03 06:33:59;;;;;;;27.70;16.67;;;1.50;86.70;;;;;;5032700;28;20174;-88
2022/12/03 06:36:26;;;;;;;28.87;17.37;;;1.50;86.80;;;;;;5033799;28;20270;-89
2022/12/03 06:38:52;;;;;;;29.17;16.73;;;1.50;86.90;;;;;;5032646;28;20266;-89
2022/12/03 06:41:18;;;;;;;30.00;16.93;;;1.50;87.00;;;;;;5032595;28;20558;-89
2022/12/03 06:43:43;;;;;;;29.83;17.43;;;1.50;87.10;;;;;;5032460;28;20180;-90
2022/12/03 06:46:09;;;;;;;29.17;14.60;;;1.50;87.10;;;;;;5032217;28;20211;-89
2022/12/03 06:48:34;;;;;;;31.50;18.17;;;1.50;87.00;;;;;;5031770;28;20172;-89
2022/12/03 06:51:00;;;;;;;29.80;16.20;;;1.50;87.00;;;;;;5032278;28;20223;-89
2022/12/03 06:53:25;;;;;;;34.67;17.70;;;1.50;87.00;;;;;;5032352;28;20180;-89
2022/12/03 06:55:51;;;;;;;28.40;15.83;;;1.40;86.90;;;;;;5033568;28;20203;-89
2022/12/03 06:58:16;;;;;;;30.17;17.20;;;1.40;86.90;;;;;;5033412;28;20184;-89
2022/12/03 07:00:42;;;;;;;33.17;17.93;;;1.40;86.80;;;;;;5032341;28;20184;-89
2022/12/03 07:03:07;;;;;;;27.23;15.87;;;1.40;87.00;;;;;;5032172;28;20185;-89
2022/12/03 07:05:33;;;;;;;33.93;17.30;;;1.40;87.10;;;;;;5033285;28;20242;-89
2022/12/03 07:08:13;;;;;;;31.27;17.77;;;1.40;87.20;;;;;;4990258;28;20203;-89
2022/12/03 07:10:39;;;;;;;40.23;20.13;;;1.40;87.20;;;;;;5032096;28;20226;-89
2022/12/03 07:13:04;;;;;;;33.10;18.77;;;1.40;87.30;;;;;;5032134;28;20205;-89
2022/12/03 07:15:30;;;;;;;35.33;18.93;;;1.40;87.30;;;;;;5031951;28;20203;-89
2022/12/03 07:17:55;;;;;;;31.33;18.00;;;1.50;87.30;;;;;;5032031;28;20264;-89
2022/12/03 07:20:21;;;;;;;32.13;18.07;;;1.40;87.40;;;;;;5031948;28;20180;-90
2022/12/03 07:22:47;;;;;;;33.67;18.87;;;1.40;87.40;;;;;;5032094;28;20192;-89
2022/12/03 07:25:13;;;;;;;34.00;19.73;;;1.40;87.30;;;;;;5031877;28;20734;-89
2022/12/03 07:27:39;;;;;;;33.73;19.60;;;1.50;87.20;;;;;;5032031;28;20669;-89
2022/12/03 07:30:06;;;;;;;34.87;19.03;;;1.50;87.30;;;;;;5031992;28;20184;-89
2022/12/03 07:32:31;;;;;;;34.57;19.57;;;1.50;87.20;;;;;;5031942;28;20176;-89
2022/12/03 07:34:57;;;;;;;33.80;20.63;;;1.50;87.20;;;;;;5031614;28;20206;-89
2022/12/03 07:37:22;;;;;;;35.37;20.43;;;1.50;87.40;;;;;;5033088;28;20554;-89
2022/12/03 07:39:48;;;;;;;38.40;19.17;;;1.50;87.60;;;;;;5032976;28;20168;-89
2022/12/03 07:42:14;;;;;;;37.23;19.10;;;1.50;87.70;;;;;;5031857;28;20175;-89
2022/12/03 07:44:39;;;;;;;32.13;19.67;;;1.50;87.70;;;;;;5031814;28;20168;-90
2022/12/03 07:47:05;;;;;;;30.93;17.60;;;1.40;87.60;;;;;;5033247;28;20440;-89
2022/12/03 07:49:30;;;;;;;34.50;19.03;;;1.40;87.50;;;;;;5031773;28;20548;-89
2022/12/03 07:51:56;;;;;;;34.03;18.50;;;1.40;87.30;;;;;;5031693;28;20183;-90
2022/12/03 07:54:24;;;;;;;30.30;17.80;;;1.40;87.10;;;;;;5032314;28;20180;-89
2022/12/03 07:56:50;;;;;;;31.37;18.67;;;1.40;87.10;;;;;;5031642;28;20356;-88
2022/12/03 07:59:16;;;;;;;34.63;20.27;;;1.40;87.20;;;;;;5033815;28;20274;-88
2022/12/03 08:01:42;;;;;;;36.20;19.37;;;1.50;87.40;;;;;;5035668;28;20184;-88
2022/12/03 08:04:08;;;;;;;31.77;19.57;;;1.40;87.40;;;;;;5036977;28;20228;-90
2022/12/03 08:06:33;;;;;;;34.17;20.30;;;1.40;87.50;;;;;;5035529;28;20756;-89
2022/12/03 08:08:59;;;;;;;37.03;19.37;;;1.50;87.70;;;;;;5036689;28;20657;-89
2022/12/03 08:11:27;;;;;;;42.87;21.67;;;1.40;87.60;;;;;;5035451;28;20634;-89
2022/12/03 08:13:53;;;;;;;36.70;20.53;;;1.50;87.80;;;;;;5035661;28;20172;-88
2022/12/03 08:16:20;;;;;;;36.37;21.37;;;1.50;88.00;;;;;;5035271;28;20258;-89
2022/12/03 08:18:47;;;;;;;40.30;21.10;;;1.50;88.10;;;;;;5035195;28;20207;-89
2022/12/03 08:21:16;;;;;;;33.73;18.53;;;1.50;88.00;;;;;;5035667;28;20263;-90
2022/12/03 08:23:42;;;;;;;37.67;20.37;;;1.50;88.10;;;;;;5036432;28;20562;-89
2022/12/03 08:26:27;;;;;;;34.57;19.13;;;1.40;87.90;;;;;;5034816;28;20712;-89
2022/12/03 08:28:53;;;;;;;40.60;19.70;;;1.40;87.90;;;;;;5036146;28;20605;-89
2022/12/03 08:31:22;;;;;;;36.10;21.20;;;1.40;87.90;;;;;;5036161;28;20195;-89
2022/12/03 08:33:53;;;;;;;32.13;16.17;;;1.50;87.90;;;;;;5034901;28;20551;-90
2022/12/03 08:36:29;;;;;;;35.03;17.93;;;1.50;87.80;;;;;;5035119;28;20619;-89
2022/12/03 08:39:00;;;;;;;37.67;20.43;;;1.40;87.40;;;;;;5039778;28;20193;-88
2022/12/03 08:44:26;;;;;;;40.03;21.00;;;1.50;87.40;;;;;;5036383;28;20179;-90
2022/12/03 08:46:58;;;;;;;36.27;20.70;;;1.40;87.40;;;;;;5036481;28;20549;-89
2022/12/03 08:49:24;;;;;;;39.30;18.73;;;1.40;87.20;;;;;;5034540;28;20168;-89
2022/12/03 08:51:56;;;;;;;38.93;20.20;;;1.50;87.30;;;;;;5034599;28;20253;-88
2022/12/03 08:54:23;;;;;;;40.70;22.13;;;1.50;87.30;;;;;;5035791;28;20153;-89
2022/12/03 08:56:48;;;;;;;39.10;22.90;;;1.50;87.10;;;;;;5035733;28;20295;-88
2022/12/03 08:59:23;;;;;;;42.13;20.47;;;1.50;87.20;;;;;;5034986;28;20307;-88
2022/12/03 09:01:50;;;;;;;43.90;23.80;;;1.50;87.40;;;;;;5034428;28;20176;-89
2022/12/03 09:04:23;;;;;;;35.70;22.40;;;1.50;87.30;;;;;;5034478;28;20178;-90
2022/12/03 09:06:50;;;;;;;38.33;22.57;;;1.50;87.40;;;;;;5035325;28;20206;-90
2022/12/03 09:09:16;;;;;;;41.23;21.67;;;1.50;87.30;;;;;;5035463;28;20205;-89
2022/12/03 09:11:42;;;;;;;47.50;21.43;;;1.50;87.30;;;;;;5033620;28;20196;-90
2022/12/03 09:14:07;;;;;;;41.47;21.30;;;1.50;87.20;;;;;;5035425;28;20172;-90
2022/12/03 09:16:33;;;;;;;40.67;21.43;;;1.50;87.30;;;;;;5034032;28;20200;-90
2022/12/03 09:18:58;;;;;;;40.60;22.70;;;1.60;87.30;;;;;;5034091;28;20186;-88
2022/12/03 09:21:24;;;;;;;45.10;22.13;;;1.60;87.30;;;;;;5035410;28;20196;-88
2022/12/03 09:23:49;;;;;;;38.77;22.07;;;1.60;87.40;;;;;;5035247;28;20199;-88
2022/12/03 09:26:15;;;;;;;41.97;22.60;;;1.60;87.50;;;;;;5035131;28;20207;-89
2022/12/03 09:28:40;;;;;;;40.90;22.90;;;1.70;87.60;;;;;;5035227;28;20177;-89
2022/12/03 09:31:06;;;;;;;48.47;24.27;;;1.70;87.60;;;;;;5035498;28;20207;-89
2022/12/03 09:33:32;;;;;;;35.23;18.43;;;1.70;87.50;;;;;;5033934;28;20231;-88
2022/12/03 09:35:58;;;;;;;41.77;21.57;;;1.60;87.30;;;;;;5034859;28;20551;-89
2022/12/03 09:38:24;;;;;;;33.30;19.77;;;1.60;86.60;;;;;;5033708;28;20177;-88
2022/12/03 09:40:50;;;;;;;38.33;20.30;;;1.60;86.40;;;;;;5033620;28;20229;-88
2022/12/03 09:43:16;;;;;;;35.10;22.00;;;1.60;86.40;;;;;;5033991;28;20185;-88
2022/12/03 09:45:45;;;;;;;38.60;21.13;;;1.60;86.30;;;;;;5034755;28;20202;-89
2022/12/03 09:48:13;;;;;;;33.20;19.07;;;1.60;86.30;;;;;;5034725;28;20173;-89
2022/12/03 09:50:40;;;;;;;38.93;20.67;;;1.60;86.20;;;;;;5034994;28;20186;-89
2022/12/03 09:53:09;;;;;;;37.07;21.70;;;1.60;86.20;;;;;;5033338;28;20191;-88
2022/12/03 09:55:34;;;;;;;36.10;21.50;;;1.60;86.20;;;;;;5033589;28;20662;-87
2022/12/03 09:58:00;;;;;;;37.70;20.67;;;1.60;86.00;;;;;;5033582;28;20284;-87
2022/12/03 10:00:28;;;;;;;38.20;21.70;;;1.60;86.10;;;;;;5033496;28;20214;-88
2022/12/03 10:02:58;;;;;;;39.30;21.10;;;1.60;85.90;;;;;;5033507;28;20222;-89
2022/12/03 10:05:24;;;;;;;41.90;22.60;;;1.70;86.10;;;;;;5034147;28;20270;-89
2022/12/03 10:07:51;;;;;;;41.30;22.53;;;1.70;86.20;;;;;;5034134;28;20183;-89
2022/12/03 10:10:22;;;;;;;38.77;22.57;;;1.70;86.20;;;;;;5033161;28;20629;-89
2022/12/03 10:12:49;;;;;;;34.60;21.87;;;1.70;86.10;;;;;;5033110;28;20593;-89
2022/12/03 10:15:18;;;;;;;38.47;20.70;;;1.80;86.30;;;;;;5034157;28;20199;-89
2022/12/03 10:17:46;;;;;;;36.67;22.47;;;1.80;86.30;;;;;;5032993;28;20615;-90
2022/12/03 10:20:14;;;;;;;35.90;20.20;;;1.80;86.30;;;;;;5032905;28;20188;-90
2022/12/03 10:22:39;;;;;;;41.20;22.53;;;1.80;86.40;;;;;;5032202;28;20176;-92
2022/12/03 10:25:12;;;;;;;36.40;20.43;;;1.70;86.30;;;;;;5033447;28;20207;-91
2022/12/03 10:27:38;;;;;;;33.93;20.83;;;1.70;86.20;;;;;;5033177;28;20310;-89
2022/12/03 10:30:18;;;;;;;33.33;20.00;;;1.70;86.10;;;;;;5032979;28;20176;-89
2022/12/03 10:32:49;;;;;;;36.37;21.30;;;1.70;85.90;;;;;;5033059;28;20169;-89
2022/12/03 10:35:17;;;;;;;43.87;21.80;;;1.70;86.10;;;;;;5032586;28;20204;-89
2022/12/03 10:37:56;;;;;;;38.90;21.43;;;1.70;86.20;;;;;;5032635;28;20261;-89
2022/12/03 10:40:35;;;;;;;31.70;18.90;;;1.70;86.20;;;;;;5033792;28;20217;-89
2022/12/03 10:43:13;;;;;;;33.67;20.37;;;1.70;86.10;;;;;;5034073;28;20164;-91
2022/12/03 10:45:38;;;;;;;36.90;19.73;;;1.70;86.10;;;;;;5033325;28;20235;-89
2022/12/03 10:48:09;;;;;;;36.20;19.73;;;1.80;86.30;;;;;;5032571;28;20708;-90
2022/12/03 10:50:35;;;;;;;35.10;19.90;;;1.80;86.10;;;;;;5032417;28;20263;-89
2022/12/03 10:53:01;;;;;;;32.17;18.30;;;1.80;86.10;;;;;;5032507;28;20206;-90
2022/12/03 10:55:31;;;;;;;34.47;18.80;;;1.70;85.90;;;;;;5032238;28;20204;-90
2022/12/03 10:57:57;;;;;;;35.47;19.73;;;1.80;85.90;;;;;;5033878;28;20173;-91
2022/12/03 11:00:22;;;;;;;38.50;22.13;;;1.80;85.80;;;;;;5033484;28;20187;-89
2022/12/03 11:02:48;;;;;;;36.93;21.53;;;1.80;86.00;;;;;;5032474;28;20188;-90
2022/12/03 11:05:20;;;;;;;34.77;18.27;;;1.90;86.30;;;;;;5031914;28;20761;-89
2022/12/03 11:07:46;;;;;;;33.23;20.10;;;1.90;86.10;;;;;;5032133;28;20267;-89
2022/12/03 11:10:17;;;;;;;33.10;19.93;;;1.90;85.70;;;;;;5032268;28;20192;-89
2022/12/03 11:13:21;;;;;;;33.20;19.87;;;1.90;85.60;;;;;;5031886;28;20180;-88
2022/12/03 11:15:47;;;;;;;37.70;20.20;;;1.90;85.70;;;;;;5033131;28;20570;-89
2022/12/03 11:18:35;;;;;;;38.97;21.03;;;1.90;85.50;;;;;;5032357;28;20634;-89
2022/12/03 11:21:10;;;;;;;26.93;17.07;;;2.00;85.50;;;;;;5032006;28;20186;-89
2022/12/03 11:23:44;;;;;;;32.67;19.80;;;2.00;85.50;;;;;;5058087;23;20224;-94
2022/12/03 11:26:44;;;;;;;30.80;18.50;;;2.00;85.70;;;;;;5026319;28;20236;-93
2022/12/03 11:29:13;;;;;;;31.17;18.57;;;2.00;85.30;;;;;;5019166;28;20261;-93
2022/12/03 11:31:47;;;;;;;28.73;15.80;;;2.00;84.80;;;;;;5027226;28;20189;-93
2022/12/03 11:34:15;;;;;;;30.70;16.87;;;2.00;84.30;;;;;;5026744;28;20201;-93
2022/12/03 11:37:09;;;;;;;28.57;17.30;;;2.00;84.30;;;;;;5031286;28;20181;-94
2022/12/03 11:39:46;;;;;;;27.97;17.63;;;2.10;84.00;;;;;;5034897;28;20235;-93
2022/12/03 11:42:27;;;;;;;32.93;18.73;;;2.10;83.90;;;;;;5025667;28;20531;-92
2022/12/03 11:45:05;;;;;;;29.70;17.33;;;2.10;83.90;;;;;;5020822;28;20309;-92
2022/12/03 11:47:41;;;;;;;29.57;18.70;;;2.10;83.40;;;;;;5020187;28;20193;-92
2022/12/03 11:50:21;;;;;;;22.77;12.40;;;2.20;83.80;;;;;;5026755;28;20196;-93
2022/12/03 11:52:53;;;;;;;28.63;17.60;;;2.20;83.30;;;;;;5030559;28;20176;-93
2022/12/03 11:55:36;;;;;;;34.30;17.87;;;2.20;83.70;;;;;;5027441;28;20181;-94
2022/12/03 11:58:04;;;;;;;33.20;17.77;;;2.20;83.30;;;;;;5031048;28;20180;-93
2022/12/03 12:00:30;;;;;;;26.30;17.17;;;2.20;83.30;;;;;;5033053;28;20201;-94
2022/12/03 12:02:57;;;;;;;29.50;18.37;;;2.30;83.50;;;;;;5025023;28;20177;-92
2022/12/03 12:05:26;;;;;;;29.53;17.07;;;2.20;83.50;;;;;;5017342;28;20177;-93
2022/12/03 12:07:55;;;;;;;36.67;19.30;;;2.30;83.60;;;;;;5024711;28;20173;-93
2022/12/03 12:10:41;;;;;;;33.53;18.47;;;2.20;83.70;;;;;;5026227;28;20189;-93
2022/12/03 12:13:26;;;;;;;27.07;18.13;;;2.20;83.40;;;;;;5029247;28;20193;-93
2022/12/03 12:15:53;;;;;;;39.73;19.37;;;2.20;83.50;;;;;;5021048;28;20173;-93
2022/12/03 12:18:45;;;;;;;30.70;17.43;;;2.30;83.80;;;;;;5019110;28;20181;-93
2022/12/03 12:21:46;;;;;;;37.10;20.87;;;2.20;83.70;;;;;;5020359;28;20185;-92
2022/12/03 12:24:42;;;;;;;32.97;17.77;;;2.20;83.80;;;;;;5036656;28;20208;-94
2022/12/03 12:27:07;;;;;;;28.70;16.87;;;2.20;83.70;;;;;;5038162;28;20219;-93
2022/12/03 12:29:34;;;;;;;29.60;16.83;;;2.10;83.70;;;;;;5034594;28;20177;-93
2022/12/03 12:32:09;;;;;;;27.80;17.17;;;2.00;83.50;;;;;;5036502;28;20192;-93
2022/12/03 12:34:42;;;;;;;33.37;19.23;;;2.00;83.90;;;;;;5032006;28;20193;-93
2022/12/03 12:37:21;;;;;;;39.10;17.67;;;2.00;83.90;;;;;;5033434;28;20184;-93
2022/12/03 12:39:51;;;;;;;30.70;18.67;;;2.00;83.80;;;;;;5029522;28;20252;-93
2022/12/03 12:42:34;;;;;;;33.17;18.67;;;2.00;83.80;;;;;;5024733;28;20173;-93
2022/12/03 12:45:21;;;;;;;30.37;18.63;;;2.10;84.10;;;;;;5023046;28;20216;-94
2022/12/03 12:48:05;;;;;;;32.27;18.77;;;2.00;83.70;;;;;;5026404;28;20183;-93
2022/12/03 12:50:34;;;;;;;36.97;18.27;;;2.10;83.90;;;;;;5024920;28;20166;-93
2022/12/03 12:53:03;;;;;;;32.50;19.00;;;2.10;84.00;;;;;;5024107;28;20201;-93
2022/12/03 12:55:28;;;;;;;34.57;18.47;;;2.00;84.10;;;;;;5027364;28;20197;-93
2022/12/03 12:57:58;;;;;;;31.50;19.00;;;2.00;84.50;;;;;;5021714;28;20173;-93
2022/12/03 13:00:24;;;;;;;33.33;19.43;;;2.10;84.50;;;;;;5024546;28;20184;-91
2022/12/03 13:02:55;;;;;;;32.37;20.47;;;2.10;84.50;;;;;;5025889;28;20186;-93
2022/12/03 13:05:21;;;;;;;30.40;17.37;;;2.10;84.10;;;;;;5032158;28;20176;-94
2022/12/03 13:07:47;;;;;;;28.63;17.20;;;2.10;84.10;;;;;;5032949;28;20177;-93
2022/12/03 13:10:36;;;;;;;36.10;20.93;;;2.10;84.10;;;;;;5029017;28;20174;-93